sensor_id;sensor_type;location;lat;lon;timestamp;P1;durP1;ratioP1;P2;durP2;ratioP2
41687;SDS011;27371;42.686;23.362;2023-07-31T00:04:09;3.17;;;2.20;;
41687;SDS011;27371;42.686;23.362;2023-07-31T00:06:35;3.05;;;2.00;;
41687;SDS011;27371;42.686;23.362;2023-07-31T00:09:00;4.65;;;2.20;;
41687;SDS011;27371;42.686;23.362;2023-07-31T00:11:25;3.22;;;2.10;;
41687;SDS011;27371;42.686;23.362;2023-07-31T00:13:52;3.75;;;2.20;;
41687;SDS011;27371;42.686;23.362;2023-07-31T00:16:18;3.25;;;2.20;;
41687;SDS011;27371;42.686;23.362;2023-07-31T00:18:43;3.30;;;1.77;;
41687;SDS011;27371;42.686;23.362;2023-07-31T00:21:09;3.03;;;1.90;;
41687;SDS011;27371;42.686;23.362;2023-07-31T00:23:34;3.95;;;2.35;;
41687;SDS011;27371;42.686;23.362;2023-07-31T00:26:00;4.20;;;3.08;;
41687;SDS011;27371;42.686;23.362;2023-07-31T00:28:25;3.78;;;2.63;;
41687;SDS011;27371;42.686;23.362;2023-07-31T00:30:52;3.42;;;2.33;;
41687;SDS011;27371;42.686;23.362;2023-07-31T00:33:18;2.40;;;1.73;;
41687;SDS011;27371;42.686;23.362;2023-07-31T00:35:43;3.03;;;2.20;;
41687;SDS011;27371;42.686;23.362;2023-07-31T00:38:08;2.00;;;1.70;;
41687;SDS011;27371;42.686;23.362;2023-07-31T00:40:34;2.58;;;1.92;;
41687;SDS011;27371;42.686;23.362;2023-07-31T00:43:01;6.10;;;2.10;;
41687;SDS011;27371;42.686;23.362;2023-07-31T00:45:28;2.58;;;2.30;;
41687;SDS011;27371;42.686;23.362;2023-07-31T00:47:54;3.70;;;2.17;;
41687;SDS011;27371;42.686;23.362;2023-07-31T00:50:20;3.03;;;2.60;;
41687;SDS011;27371;42.686;23.362;2023-07-31T00:52:47;3.22;;;2.92;;
41687;SDS011;27371;42.686;23.362;2023-07-31T00:55:13;4.35;;;2.72;;
41687;SDS011;27371;42.686;23.362;2023-07-31T00:57:39;3.38;;;2.75;;
41687;SDS011;27371;42.686;23.362;2023-07-31T01:00:07;3.25;;;2.88;;
41687;SDS011;27371;42.686;23.362;2023-07-31T01:02:32;5.32;;;3.50;;
41687;SDS011;27371;42.686;23.362;2023-07-31T01:04:58;3.80;;;3.40;;
41687;SDS011;27371;42.686;23.362;2023-07-31T01:10:04;3.78;;;3.47;;
41687;SDS011;27371;42.686;23.362;2023-07-31T01:12:35;5.68;;;5.05;;
41687;SDS011;27371;42.686;23.362;2023-07-31T01:15:06;5.20;;;4.70;;
41687;SDS011;27371;42.686;23.362;2023-07-31T01:17:36;9.15;;;5.00;;
41687;SDS011;27371;42.686;23.362;2023-07-31T01:20:03;8.75;;;5.97;;
41687;SDS011;27371;42.686;23.362;2023-07-31T01:27:40;7.53;;;6.82;;
41687;SDS011;27371;42.686;23.362;2023-07-31T01:30:16;8.15;;;7.45;;
41687;SDS011;27371;42.686;23.362;2023-07-31T01:32:47;8.23;;;7.43;;
41687;SDS011;27371;42.686;23.362;2023-07-31T01:35:13;8.48;;;7.68;;
41687;SDS011;27371;42.686;23.362;2023-07-31T01:37:39;10.45;;;9.38;;
41687;SDS011;27371;42.686;23.362;2023-07-31T01:40:05;10.20;;;9.30;;
41687;SDS011;27371;42.686;23.362;2023-07-31T01:42:32;10.75;;;9.75;;
41687;SDS011;27371;42.686;23.362;2023-07-31T01:44:57;12.55;;;11.35;;
41687;SDS011;27371;42.686;23.362;2023-07-31T01:47:23;12.40;;;11.30;;
41687;SDS011;27371;42.686;23.362;2023-07-31T01:49:48;13.10;;;11.80;;
41687;SDS011;27371;42.686;23.362;2023-07-31T01:52:14;13.52;;;12.32;;
41687;SDS011;27371;42.686;23.362;2023-07-31T01:54:40;13.93;;;12.65;;
41687;SDS011;27371;42.686;23.362;2023-07-31T01:57:05;14.68;;;13.38;;
41687;SDS011;27371;42.686;23.362;2023-07-31T01:59:31;14.30;;;13.07;;
41687;SDS011;27371;42.686;23.362;2023-07-31T02:01:56;15.95;;;14.45;;
41687;SDS011;27371;42.686;23.362;2023-07-31T02:04:22;16.63;;;15.00;;
41687;SDS011;27371;42.686;23.362;2023-07-31T02:06:47;16.77;;;15.18;;
41687;SDS011;27371;42.686;23.362;2023-07-31T02:09:13;16.08;;;14.52;;
41687;SDS011;27371;42.686;23.362;2023-07-31T02:11:38;15.68;;;14.27;;
41687;SDS011;27371;42.686;23.362;2023-07-31T02:14:04;15.57;;;13.98;;
41687;SDS011;27371;42.686;23.362;2023-07-31T02:16:29;14.68;;;13.27;;
41687;SDS011;27371;42.686;23.362;2023-07-31T02:18:55;15.20;;;13.80;;
41687;SDS011;27371;42.686;23.362;2023-07-31T02:21:20;15.02;;;13.52;;
41687;SDS011;27371;42.686;23.362;2023-07-31T02:23:46;14.70;;;13.15;;
41687;SDS011;27371;42.686;23.362;2023-07-31T02:26:11;15.18;;;13.73;;
41687;SDS011;27371;42.686;23.362;2023-07-31T02:28:37;15.15;;;13.75;;
41687;SDS011;27371;42.686;23.362;2023-07-31T02:31:02;15.43;;;14.02;;
41687;SDS011;27371;42.686;23.362;2023-07-31T02:33:28;15.35;;;13.70;;
41687;SDS011;27371;42.686;23.362;2023-07-31T02:35:53;15.48;;;13.98;;
41687;SDS011;27371;42.686;23.362;2023-07-31T02:38:19;16.38;;;14.77;;
41687;SDS011;27371;42.686;23.362;2023-07-31T02:40:44;15.75;;;14.23;;
41687;SDS011;27371;42.686;23.362;2023-07-31T02:43:09;16.00;;;14.50;;
41687;SDS011;27371;42.686;23.362;2023-07-31T02:45:35;16.20;;;14.70;;
41687;SDS011;27371;42.686;23.362;2023-07-31T02:48:00;15.40;;;14.10;;
41687;SDS011;27371;42.686;23.362;2023-07-31T02:50:26;15.43;;;14.02;;
41687;SDS011;27371;42.686;23.362;2023-07-31T02:52:53;16.80;;;15.20;;
41687;SDS011;27371;42.686;23.362;2023-07-31T02:55:19;16.25;;;14.75;;
41687;SDS011;27371;42.686;23.362;2023-07-31T02:57:44;16.15;;;14.80;;
41687;SDS011;27371;42.686;23.362;2023-07-31T03:00:10;15.05;;;13.75;;
41687;SDS011;27371;42.686;23.362;2023-07-31T03:02:36;15.98;;;14.48;;
41687;SDS011;27371;42.686;23.362;2023-07-31T03:05:01;17.42;;;14.77;;
41687;SDS011;27371;42.686;23.362;2023-07-31T03:07:27;16.00;;;14.60;;
41687;SDS011;27371;42.686;23.362;2023-07-31T03:09:53;16.05;;;14.60;;
41687;SDS011;27371;42.686;23.362;2023-07-31T03:12:19;16.17;;;14.77;;
41687;SDS011;27371;42.686;23.362;2023-07-31T03:14:44;17.83;;;16.23;;
41687;SDS011;27371;42.686;23.362;2023-07-31T03:17:10;17.25;;;15.38;;
41687;SDS011;27371;42.686;23.362;2023-07-31T03:19:35;15.95;;;14.45;;
41687;SDS011;27371;42.686;23.362;2023-07-31T03:22:01;16.73;;;15.23;;
41687;SDS011;27371;42.686;23.362;2023-07-31T03:24:26;15.95;;;14.40;;
41687;SDS011;27371;42.686;23.362;2023-07-31T03:29:37;16.33;;;14.93;;
41687;SDS011;27371;42.686;23.362;2023-07-31T03:32:03;15.65;;;14.30;;
41687;SDS011;27371;42.686;23.362;2023-07-31T03:34:29;16.58;;;15.07;;
41687;SDS011;27371;42.686;23.362;2023-07-31T03:36:56;16.70;;;15.02;;
41687;SDS011;27371;42.686;23.362;2023-07-31T03:39:22;16.63;;;15.13;;
41687;SDS011;27371;42.686;23.362;2023-07-31T03:41:48;16.42;;;15.02;;
41687;SDS011;27371;42.686;23.362;2023-07-31T03:44:13;16.88;;;15.32;;
41687;SDS011;27371;42.686;23.362;2023-07-31T03:46:39;17.50;;;15.82;;
41687;SDS011;27371;42.686;23.362;2023-07-31T03:49:04;19.75;;;17.95;;
41687;SDS011;27371;42.686;23.362;2023-07-31T03:51:30;17.83;;;15.93;;
41687;SDS011;27371;42.686;23.362;2023-07-31T03:53:55;17.58;;;15.93;;
41687;SDS011;27371;42.686;23.362;2023-07-31T03:56:21;17.83;;;16.02;;
41687;SDS011;27371;42.686;23.362;2023-07-31T03:58:47;17.48;;;15.88;;
41687;SDS011;27371;42.686;23.362;2023-07-31T04:01:13;17.90;;;16.20;;
41687;SDS011;27371;42.686;23.362;2023-07-31T04:03:38;18.33;;;16.63;;
41687;SDS011;27371;42.686;23.362;2023-07-31T04:06:04;18.13;;;16.40;;
41687;SDS011;27371;42.686;23.362;2023-07-31T04:08:29;19.33;;;17.42;;
41687;SDS011;27371;42.686;23.362;2023-07-31T04:10:55;18.20;;;16.40;;
41687;SDS011;27371;42.686;23.362;2023-07-31T04:13:21;19.48;;;17.67;;
41687;SDS011;27371;42.686;23.362;2023-07-31T04:15:50;17.92;;;16.13;;
41687;SDS011;27371;42.686;23.362;2023-07-31T04:18:16;19.05;;;17.05;;
41687;SDS011;27371;42.686;23.362;2023-07-31T04:20:41;19.63;;;17.52;;
41687;SDS011;27371;42.686;23.362;2023-07-31T04:23:06;18.67;;;16.90;;
41687;SDS011;27371;42.686;23.362;2023-07-31T04:25:32;18.77;;;16.88;;
41687;SDS011;27371;42.686;23.362;2023-07-31T04:27:59;18.90;;;17.00;;
41687;SDS011;27371;42.686;23.362;2023-07-31T04:30:25;18.27;;;16.58;;
41687;SDS011;27371;42.686;23.362;2023-07-31T04:32:51;20.05;;;18.13;;
41687;SDS011;27371;42.686;23.362;2023-07-31T04:35:16;19.92;;;18.02;;
41687;SDS011;27371;42.686;23.362;2023-07-31T04:37:42;18.80;;;17.10;;
41687;SDS011;27371;42.686;23.362;2023-07-31T04:40:07;19.02;;;17.30;;
41687;SDS011;27371;42.686;23.362;2023-07-31T04:42:33;19.00;;;17.10;;
41687;SDS011;27371;42.686;23.362;2023-07-31T04:44:59;18.13;;;16.27;;
41687;SDS011;27371;42.686;23.362;2023-07-31T04:47:25;18.75;;;16.85;;
41687;SDS011;27371;42.686;23.362;2023-07-31T04:49:50;18.35;;;16.45;;
41687;SDS011;27371;42.686;23.362;2023-07-31T04:52:16;18.25;;;16.55;;
41687;SDS011;27371;42.686;23.362;2023-07-31T04:54:41;18.52;;;16.80;;
41687;SDS011;27371;42.686;23.362;2023-07-31T04:57:07;18.13;;;16.38;;
41687;SDS011;27371;42.686;23.362;2023-07-31T04:59:32;18.23;;;15.75;;
41687;SDS011;27371;42.686;23.362;2023-07-31T05:01:57;16.95;;;15.27;;
41687;SDS011;27371;42.686;23.362;2023-07-31T05:04:23;18.65;;;16.80;;
41687;SDS011;27371;42.686;23.362;2023-07-31T05:06:49;16.50;;;14.85;;
41687;SDS011;27371;42.686;23.362;2023-07-31T05:09:14;14.80;;;13.40;;
41687;SDS011;27371;42.686;23.362;2023-07-31T05:11:39;15.68;;;14.27;;
41687;SDS011;27371;42.686;23.362;2023-07-31T05:14:07;17.80;;;14.23;;
41687;SDS011;27371;42.686;23.362;2023-07-31T05:16:33;14.55;;;13.32;;
41687;SDS011;27371;42.686;23.362;2023-07-31T05:18:58;14.10;;;12.80;;
41687;SDS011;27371;42.686;23.362;2023-07-31T05:21:24;13.70;;;12.50;;
41687;SDS011;27371;42.686;23.362;2023-07-31T05:23:50;13.93;;;12.52;;
41687;SDS011;27371;42.686;23.362;2023-07-31T05:26:15;12.55;;;11.45;;
41687;SDS011;27371;42.686;23.362;2023-07-31T05:28:41;11.50;;;10.57;;
41687;SDS011;27371;42.686;23.362;2023-07-31T05:31:06;11.90;;;10.82;;
41687;SDS011;27371;42.686;23.362;2023-07-31T05:33:32;11.75;;;10.65;;
41687;SDS011;27371;42.686;23.362;2023-07-31T05:35:57;11.80;;;10.52;;
41687;SDS011;27371;42.686;23.362;2023-07-31T05:38:23;10.65;;;9.65;;
41687;SDS011;27371;42.686;23.362;2023-07-31T05:40:48;10.38;;;9.40;;
41687;SDS011;27371;42.686;23.362;2023-07-31T05:43:14;9.57;;;8.27;;
41687;SDS011;27371;42.686;23.362;2023-07-31T05:45:40;11.70;;;9.80;;
41687;SDS011;27371;42.686;23.362;2023-07-31T05:48:07;8.68;;;7.88;;
41687;SDS011;27371;42.686;23.362;2023-07-31T05:50:32;8.82;;;7.97;;
41687;SDS011;27371;42.686;23.362;2023-07-31T05:52:58;10.38;;;7.47;;
41687;SDS011;27371;42.686;23.362;2023-07-31T05:55:23;7.90;;;6.93;;
41687;SDS011;27371;42.686;23.362;2023-07-31T05:57:52;7.95;;;7.22;;
41687;SDS011;27371;42.686;23.362;2023-07-31T06:00:18;7.10;;;6.35;;
41687;SDS011;27371;42.686;23.362;2023-07-31T06:02:43;6.88;;;6.28;;
41687;SDS011;27371;42.686;23.362;2023-07-31T06:05:09;6.60;;;6.00;;
41687;SDS011;27371;42.686;23.362;2023-07-31T06:07:35;8.13;;;6.25;;
41687;SDS011;27371;42.686;23.362;2023-07-31T06:10:00;6.43;;;5.25;;
41687;SDS011;27371;42.686;23.362;2023-07-31T06:12:28;5.85;;;5.15;;
41687;SDS011;27371;42.686;23.362;2023-07-31T06:14:53;5.95;;;5.25;;
41687;SDS011;27371;42.686;23.362;2023-07-31T06:17:19;5.80;;;4.68;;
41687;SDS011;27371;42.686;23.362;2023-07-31T06:19:45;6.80;;;4.63;;
41687;SDS011;27371;42.686;23.362;2023-07-31T06:22:10;4.78;;;4.35;;
41687;SDS011;27371;42.686;23.362;2023-07-31T06:24:36;5.45;;;4.15;;
41687;SDS011;27371;42.686;23.362;2023-07-31T06:27:04;5.95;;;3.60;;
41687;SDS011;27371;42.686;23.362;2023-07-31T06:29:31;4.57;;;4.18;;
41687;SDS011;27371;42.686;23.362;2023-07-31T06:31:56;5.40;;;3.85;;
41687;SDS011;27371;42.686;23.362;2023-07-31T06:34:22;6.93;;;3.70;;
41687;SDS011;27371;42.686;23.362;2023-07-31T06:36:47;5.25;;;3.78;;
41687;SDS011;27371;42.686;23.362;2023-07-31T06:39:12;4.20;;;3.80;;
41687;SDS011;27371;42.686;23.362;2023-07-31T06:41:38;7.63;;;3.40;;
41687;SDS011;27371;42.686;23.362;2023-07-31T06:44:04;5.88;;;3.30;;
41687;SDS011;27371;42.686;23.362;2023-07-31T06:46:29;9.00;;;3.72;;
41687;SDS011;27371;42.686;23.362;2023-07-31T06:48:55;4.25;;;3.42;;
41687;SDS011;27371;42.686;23.362;2023-07-31T06:51:20;4.93;;;2.85;;
41687;SDS011;27371;42.686;23.362;2023-07-31T06:53:46;4.00;;;3.35;;
41687;SDS011;27371;42.686;23.362;2023-07-31T06:56:11;5.78;;;3.00;;
41687;SDS011;27371;42.686;23.362;2023-07-31T06:58:37;3.80;;;2.90;;
41687;SDS011;27371;42.686;23.362;2023-07-31T07:01:03;4.03;;;2.80;;
41687;SDS011;27371;42.686;23.362;2023-07-31T07:03:28;2.65;;;2.25;;
41687;SDS011;27371;42.686;23.362;2023-07-31T07:05:54;3.70;;;2.60;;
41687;SDS011;27371;42.686;23.362;2023-07-31T07:08:20;4.28;;;2.70;;
41687;SDS011;27371;42.686;23.362;2023-07-31T07:10:46;5.53;;;2.63;;
41687;SDS011;27371;42.686;23.362;2023-07-31T07:13:12;4.82;;;2.60;;
41687;SDS011;27371;42.686;23.362;2023-07-31T07:15:38;3.35;;;2.30;;
41687;SDS011;27371;42.686;23.362;2023-07-31T07:18:04;7.20;;;2.88;;
41687;SDS011;27371;42.686;23.362;2023-07-31T07:20:29;6.32;;;3.10;;
41687;SDS011;27371;42.686;23.362;2023-07-31T07:22:55;4.40;;;3.47;;
41687;SDS011;27371;42.686;23.362;2023-07-31T07:25:20;4.43;;;2.70;;
41687;SDS011;27371;42.686;23.362;2023-07-31T07:27:46;5.22;;;2.67;;
41687;SDS011;27371;42.686;23.362;2023-07-31T07:30:12;3.20;;;2.40;;
41687;SDS011;27371;42.686;23.362;2023-07-31T07:32:40;3.92;;;2.13;;
41687;SDS011;27371;42.686;23.362;2023-07-31T07:35:06;4.20;;;2.33;;
41687;SDS011;27371;42.686;23.362;2023-07-31T07:37:32;3.92;;;2.30;;
41687;SDS011;27371;42.686;23.362;2023-07-31T07:39:57;3.00;;;2.20;;
41687;SDS011;27371;42.686;23.362;2023-07-31T07:42:23;4.82;;;2.60;;
41687;SDS011;27371;42.686;23.362;2023-07-31T07:44:48;3.95;;;2.40;;
41687;SDS011;27371;42.686;23.362;2023-07-31T07:47:14;3.67;;;2.58;;
41687;SDS011;27371;42.686;23.362;2023-07-31T07:49:39;6.18;;;2.78;;
41687;SDS011;27371;42.686;23.362;2023-07-31T07:52:05;6.50;;;2.70;;
41687;SDS011;27371;42.686;23.362;2023-07-31T07:54:30;3.13;;;2.00;;
41687;SDS011;27371;42.686;23.362;2023-07-31T07:56:56;3.78;;;2.25;;
41687;SDS011;27371;42.686;23.362;2023-07-31T07:59:22;3.22;;;2.00;;
41687;SDS011;27371;42.686;23.362;2023-07-31T08:01:47;4.15;;;2.20;;
41687;SDS011;27371;42.686;23.362;2023-07-31T08:04:12;4.88;;;2.00;;
41687;SDS011;27371;42.686;23.362;2023-07-31T08:06:38;3.75;;;2.10;;
41687;SDS011;27371;42.686;23.362;2023-07-31T08:09:03;3.38;;;2.13;;
41687;SDS011;27371;42.686;23.362;2023-07-31T08:11:33;4.50;;;2.08;;
41687;SDS011;27371;42.686;23.362;2023-07-31T08:13:58;5.97;;;2.08;;
41687;SDS011;27371;42.686;23.362;2023-07-31T08:16:24;2.70;;;2.30;;
41687;SDS011;27371;42.686;23.362;2023-07-31T08:18:50;3.72;;;2.30;;
41687;SDS011;27371;42.686;23.362;2023-07-31T08:21:15;3.92;;;2.20;;
41687;SDS011;27371;42.686;23.362;2023-07-31T08:23:41;5.63;;;2.47;;
41687;SDS011;27371;42.686;23.362;2023-07-31T08:26:06;2.22;;;2.03;;
41687;SDS011;27371;42.686;23.362;2023-07-31T08:28:32;4.53;;;2.20;;
41687;SDS011;27371;42.686;23.362;2023-07-31T08:30:58;5.25;;;2.67;;
41687;SDS011;27371;42.686;23.362;2023-07-31T08:33:23;3.53;;;2.20;;
41687;SDS011;27371;42.686;23.362;2023-07-31T08:35:49;2.78;;;1.80;;
41687;SDS011;27371;42.686;23.362;2023-07-31T08:38:14;2.22;;;2.03;;
41687;SDS011;27371;42.686;23.362;2023-07-31T08:40:40;3.47;;;2.30;;
41687;SDS011;27371;42.686;23.362;2023-07-31T08:43:06;4.15;;;2.20;;
41687;SDS011;27371;42.686;23.362;2023-07-31T08:45:34;3.42;;;1.67;;
41687;SDS011;27371;42.686;23.362;2023-07-31T08:48:00;2.63;;;1.85;;
41687;SDS011;27371;42.686;23.362;2023-07-31T08:50:26;3.00;;;2.22;;
41687;SDS011;27371;42.686;23.362;2023-07-31T08:52:53;3.22;;;2.20;;
41687;SDS011;27371;42.686;23.362;2023-07-31T08:55:18;4.45;;;2.20;;
41687;SDS011;27371;42.686;23.362;2023-07-31T08:57:52;2.85;;;1.98;;
41687;SDS011;27371;42.686;23.362;2023-07-31T09:00:19;4.00;;;2.25;;
41687;SDS011;27371;42.686;23.362;2023-07-31T09:03:02;3.28;;;2.40;;
41687;SDS011;27371;42.686;23.362;2023-07-31T09:05:30;2.97;;;1.83;;
41687;SDS011;27371;42.686;23.362;2023-07-31T09:07:56;2.83;;;1.90;;
41687;SDS011;27371;42.686;23.362;2023-07-31T09:10:22;3.60;;;1.95;;
41687;SDS011;27371;42.686;23.362;2023-07-31T09:12:49;5.25;;;3.53;;
41687;SDS011;27371;42.686;23.362;2023-07-31T09:15:16;2.63;;;1.98;;
41687;SDS011;27371;42.686;23.362;2023-07-31T09:17:42;8.02;;;4.38;;
41687;SDS011;27371;42.686;23.362;2023-07-31T09:20:21;5.10;;;2.90;;
41687;SDS011;27371;42.686;23.362;2023-07-31T09:22:47;4.85;;;2.25;;
41687;SDS011;27371;42.686;23.362;2023-07-31T09:25:15;4.60;;;2.45;;
41687;SDS011;27371;42.686;23.362;2023-07-31T09:27:54;6.78;;;2.50;;
41687;SDS011;27371;42.686;23.362;2023-07-31T09:30:22;4.40;;;2.88;;
41687;SDS011;27371;42.686;23.362;2023-07-31T09:32:49;4.38;;;3.47;;
41687;SDS011;27371;42.686;23.362;2023-07-31T09:37:40;9.80;;;4.85;;
41687;SDS011;27371;42.686;23.362;2023-07-31T09:40:06;5.20;;;2.80;;
41687;SDS011;27371;42.686;23.362;2023-07-31T09:42:32;4.68;;;2.13;;
41687;SDS011;27371;42.686;23.362;2023-07-31T09:45:09;2.72;;;1.83;;
41687;SDS011;27371;42.686;23.362;2023-07-31T09:47:35;3.10;;;2.00;;
41687;SDS011;27371;42.686;23.362;2023-07-31T09:50:00;5.03;;;3.08;;
41687;SDS011;27371;42.686;23.362;2023-07-31T09:52:26;3.97;;;2.40;;
41687;SDS011;27371;42.686;23.362;2023-07-31T09:54:52;5.57;;;2.00;;
41687;SDS011;27371;42.686;23.362;2023-07-31T09:57:18;2.78;;;1.90;;
41687;SDS011;27371;42.686;23.362;2023-07-31T09:59:48;3.75;;;2.58;;
41687;SDS011;27371;42.686;23.362;2023-07-31T10:02:15;5.50;;;3.60;;
41687;SDS011;27371;42.686;23.362;2023-07-31T10:04:46;7.57;;;3.47;;
41687;SDS011;27371;42.686;23.362;2023-07-31T10:07:15;3.03;;;2.40;;
41687;SDS011;27371;42.686;23.362;2023-07-31T10:09:43;6.43;;;2.65;;
41687;SDS011;27371;42.686;23.362;2023-07-31T10:12:13;3.47;;;2.10;;
41687;SDS011;27371;42.686;23.362;2023-07-31T10:14:42;7.00;;;3.70;;
41687;SDS011;27371;42.686;23.362;2023-07-31T10:17:08;3.97;;;2.78;;
41687;SDS011;27371;42.686;23.362;2023-07-31T10:19:34;6.80;;;4.22;;
41687;SDS011;27371;42.686;23.362;2023-07-31T10:22:00;5.63;;;3.70;;
41687;SDS011;27371;42.686;23.362;2023-07-31T10:24:28;4.57;;;3.60;;
41687;SDS011;27371;42.686;23.362;2023-07-31T10:26:55;5.88;;;2.08;;
41687;SDS011;27371;42.686;23.362;2023-07-31T10:29:23;7.88;;;4.15;;
41687;SDS011;27371;42.686;23.362;2023-07-31T10:31:50;7.03;;;3.78;;
41687;SDS011;27371;42.686;23.362;2023-07-31T10:34:17;8.18;;;2.58;;
41687;SDS011;27371;42.686;23.362;2023-07-31T10:36:43;7.82;;;4.45;;
41687;SDS011;27371;42.686;23.362;2023-07-31T10:39:53;3.05;;;2.03;;
41687;SDS011;27371;42.686;23.362;2023-07-31T10:42:11;3.08;;;1.55;;
41687;SDS011;27371;42.686;23.362;2023-07-31T10:44:49;5.10;;;1.70;;
41687;SDS011;27371;42.686;23.362;2023-07-31T10:47:15;4.00;;;2.58;;
41687;SDS011;27371;42.686;23.362;2023-07-31T10:49:44;4.82;;;1.50;;
41687;SDS011;27371;42.686;23.362;2023-07-31T10:52:13;2.92;;;1.25;;
41687;SDS011;27371;42.686;23.362;2023-07-31T10:54:39;5.80;;;3.20;;
41687;SDS011;27371;42.686;23.362;2023-07-31T10:57:18;3.60;;;2.60;;
41687;SDS011;27371;42.686;23.362;2023-07-31T10:59:48;3.38;;;2.30;;
41687;SDS011;27371;42.686;23.362;2023-07-31T11:02:24;3.63;;;1.90;;
41687;SDS011;27371;42.686;23.362;2023-07-31T11:05:05;3.33;;;1.60;;
41687;SDS011;27371;42.686;23.362;2023-07-31T11:07:48;3.30;;;1.55;;
41687;SDS011;27371;42.686;23.362;2023-07-31T11:10:17;2.40;;;1.45;;
41687;SDS011;27371;42.686;23.362;2023-07-31T11:12:45;1.65;;;1.20;;
41687;SDS011;27371;42.686;23.362;2023-07-31T11:15:11;2.75;;;1.30;;
41687;SDS011;27371;42.686;23.362;2023-07-31T11:17:40;1.80;;;1.20;;
41687;SDS011;27371;42.686;23.362;2023-07-31T11:20:06;2.63;;;1.45;;
41687;SDS011;27371;42.686;23.362;2023-07-31T11:22:35;2.15;;;1.23;;
41687;SDS011;27371;42.686;23.362;2023-07-31T11:25:02;2.72;;;1.83;;
41687;SDS011;27371;42.686;23.362;2023-07-31T11:27:29;2.10;;;1.30;;
41687;SDS011;27371;42.686;23.362;2023-07-31T11:30:00;2.22;;;1.20;;
41687;SDS011;27371;42.686;23.362;2023-07-31T11:32:27;2.95;;;1.40;;
41687;SDS011;27371;42.686;23.362;2023-07-31T11:34:53;7.07;;;1.40;;
41687;SDS011;27371;42.686;23.362;2023-07-31T11:37:19;4.40;;;1.35;;
41687;SDS011;27371;42.686;23.362;2023-07-31T11:39:58;2.63;;;1.23;;
41687;SDS011;27371;42.686;23.362;2023-07-31T11:42:27;2.67;;;1.13;;
41687;SDS011;27371;42.686;23.362;2023-07-31T11:44:52;1.90;;;1.15;;
41687;SDS011;27371;42.686;23.362;2023-07-31T11:47:18;3.80;;;1.90;;
41687;SDS011;27371;42.686;23.362;2023-07-31T11:49:44;6.30;;;1.70;;
41687;SDS011;27371;42.686;23.362;2023-07-31T11:52:10;3.88;;;2.22;;
41687;SDS011;27371;42.686;23.362;2023-07-31T11:54:37;2.38;;;1.73;;
41687;SDS011;27371;42.686;23.362;2023-07-31T11:57:03;3.45;;;1.52;;
41687;SDS011;27371;42.686;23.362;2023-07-31T11:59:30;5.75;;;1.95;;
41687;SDS011;27371;42.686;23.362;2023-07-31T12:01:56;2.25;;;1.67;;
41687;SDS011;27371;42.686;23.362;2023-07-31T12:04:23;3.20;;;1.80;;
41687;SDS011;27371;42.686;23.362;2023-07-31T12:06:54;2.40;;;1.80;;
41687;SDS011;27371;42.686;23.362;2023-07-31T12:09:20;3.80;;;1.83;;
41687;SDS011;27371;42.686;23.362;2023-07-31T12:11:46;4.90;;;2.20;;
41687;SDS011;27371;42.686;23.362;2023-07-31T12:14:22;3.60;;;2.50;;
41687;SDS011;27371;42.686;23.362;2023-07-31T12:16:56;4.38;;;2.10;;
41687;SDS011;27371;42.686;23.362;2023-07-31T12:19:23;4.85;;;1.90;;
41687;SDS011;27371;42.686;23.362;2023-07-31T12:24:39;3.40;;;2.45;;
41687;SDS011;27371;42.686;23.362;2023-07-31T12:27:11;6.00;;;2.70;;
41687;SDS011;27371;42.686;23.362;2023-07-31T12:29:38;7.78;;;2.70;;
41687;SDS011;27371;42.686;23.362;2023-07-31T12:32:04;3.33;;;2.78;;
41687;SDS011;27371;42.686;23.362;2023-07-31T12:34:43;3.92;;;3.10;;
41687;SDS011;27371;42.686;23.362;2023-07-31T12:37:08;4.22;;;3.15;;
41687;SDS011;27371;42.686;23.362;2023-07-31T12:39:34;6.93;;;2.95;;
41687;SDS011;27371;42.686;23.362;2023-07-31T12:41:59;5.22;;;3.13;;
41687;SDS011;27371;42.686;23.362;2023-07-31T12:44:25;4.40;;;3.60;;
41687;SDS011;27371;42.686;23.362;2023-07-31T12:46:50;4.45;;;2.70;;
41687;SDS011;27371;42.686;23.362;2023-07-31T12:49:16;7.00;;;2.90;;
41687;SDS011;27371;42.686;23.362;2023-07-31T12:51:41;4.03;;;3.00;;
41687;SDS011;27371;42.686;23.362;2023-07-31T12:54:07;3.50;;;2.85;;
41687;SDS011;27371;42.686;23.362;2023-07-31T12:56:32;4.75;;;3.35;;
41687;SDS011;27371;42.686;23.362;2023-07-31T12:58:58;5.75;;;3.15;;
41687;SDS011;27371;42.686;23.362;2023-07-31T13:01:24;5.63;;;3.72;;
41687;SDS011;27371;42.686;23.362;2023-07-31T13:03:49;4.15;;;3.72;;
41687;SDS011;27371;42.686;23.362;2023-07-31T13:06:15;5.10;;;3.35;;
41687;SDS011;27371;42.686;23.362;2023-07-31T13:08:40;7.60;;;4.60;;
41687;SDS011;27371;42.686;23.362;2023-07-31T13:11:06;5.10;;;3.72;;
41687;SDS011;27371;42.686;23.362;2023-07-31T13:13:31;5.38;;;3.80;;
41687;SDS011;27371;42.686;23.362;2023-07-31T13:15:57;3.55;;;3.25;;
41687;SDS011;27371;42.686;23.362;2023-07-31T13:18:22;6.32;;;3.20;;
41687;SDS011;27371;42.686;23.362;2023-07-31T13:20:48;18.67;;;4.28;;
41687;SDS011;27371;42.686;23.362;2023-07-31T13:23:13;6.78;;;3.75;;
41687;SDS011;27371;42.686;23.362;2023-07-31T13:25:39;3.75;;;2.92;;
41687;SDS011;27371;42.686;23.362;2023-07-31T13:28:04;4.03;;;3.47;;
41687;SDS011;27371;42.686;23.362;2023-07-31T13:30:30;5.38;;;3.35;;
41687;SDS011;27371;42.686;23.362;2023-07-31T13:32:55;4.68;;;3.08;;
41687;SDS011;27371;42.686;23.362;2023-07-31T13:35:21;5.90;;;3.60;;
41687;SDS011;27371;42.686;23.362;2023-07-31T13:37:46;6.28;;;3.38;;
41687;SDS011;27371;42.686;23.362;2023-07-31T13:40:12;6.68;;;3.10;;
41687;SDS011;27371;42.686;23.362;2023-07-31T13:42:37;6.40;;;2.97;;
41687;SDS011;27371;42.686;23.362;2023-07-31T13:45:03;5.95;;;2.63;;
41687;SDS011;27371;42.686;23.362;2023-07-31T13:47:29;7.45;;;2.95;;
41687;SDS011;27371;42.686;23.362;2023-07-31T13:49:54;3.65;;;3.00;;
41687;SDS011;27371;42.686;23.362;2023-07-31T13:52:20;4.78;;;2.80;;
41687;SDS011;27371;42.686;23.362;2023-07-31T13:54:45;2.85;;;2.55;;
41687;SDS011;27371;42.686;23.362;2023-07-31T13:57:11;7.18;;;3.35;;
41687;SDS011;27371;42.686;23.362;2023-07-31T13:59:36;3.70;;;2.30;;
41687;SDS011;27371;42.686;23.362;2023-07-31T14:02:02;5.03;;;2.45;;
41687;SDS011;27371;42.686;23.362;2023-07-31T14:04:28;7.70;;;5.53;;
41687;SDS011;27371;42.686;23.362;2023-07-31T14:06:54;3.65;;;2.78;;
41687;SDS011;27371;42.686;23.362;2023-07-31T14:09:21;2.85;;;2.10;;
41687;SDS011;27371;42.686;23.362;2023-07-31T14:11:46;4.47;;;2.80;;
41687;SDS011;27371;42.686;23.362;2023-07-31T14:14:11;5.63;;;2.80;;
41687;SDS011;27371;42.686;23.362;2023-07-31T14:16:38;5.07;;;2.50;;
41687;SDS011;27371;42.686;23.362;2023-07-31T14:19:04;6.03;;;2.55;;
41687;SDS011;27371;42.686;23.362;2023-07-31T14:21:29;3.28;;;2.45;;
41687;SDS011;27371;42.686;23.362;2023-07-31T14:23:55;4.75;;;2.65;;
41687;SDS011;27371;42.686;23.362;2023-07-31T14:26:20;5.88;;;2.60;;
41687;SDS011;27371;42.686;23.362;2023-07-31T14:28:46;12.90;;;3.08;;
41687;SDS011;27371;42.686;23.362;2023-07-31T14:31:12;6.82;;;2.67;;
41687;SDS011;27371;42.686;23.362;2023-07-31T14:33:37;4.85;;;2.50;;
41687;SDS011;27371;42.686;23.362;2023-07-31T14:36:03;5.63;;;2.60;;
41687;SDS011;27371;42.686;23.362;2023-07-31T14:38:28;3.00;;;2.30;;
41687;SDS011;27371;42.686;23.362;2023-07-31T14:40:54;4.97;;;2.40;;
41687;SDS011;27371;42.686;23.362;2023-07-31T14:43:20;3.55;;;2.60;;